createdAt,value
2023-01-19T00:01:44.313Z,55.63
2023-01-19T00:04:14.422Z,41.97
2023-01-19T00:06:44.566Z,39.28
2023-01-19T00:09:14.724Z,39.35
2023-01-19T00:11:47.342Z,41.88
2023-01-19T00:14:17.451Z,41.33
2023-01-19T00:16:47.571Z,41.28
2023-01-19T00:19:17.716Z,38.13
2023-01-19T00:21:47.807Z,41.83
2023-01-19T00:24:18.406Z,37.08
2023-01-19T00:26:51.146Z,38.45
2023-01-19T00:29:21.323Z,41.15
2023-01-19T00:31:51.450Z,38.75
2023-01-19T00:34:21.797Z,39.47
2023-01-19T00:36:51.899Z,35.65
2023-01-19T00:39:24.891Z,37.97
2023-01-19T00:42:09.884Z,33.47
2023-01-19T00:44:39.951Z,35.83
2023-01-19T00:47:11.924Z,35.03
2023-01-19T00:49:42.537Z,37.58
2023-01-19T00:52:12.716Z,36.53
2023-01-19T00:54:42.835Z,35.22
2023-01-19T00:57:15.537Z,31.63
2023-01-19T00:59:45.611Z,30.17
2023-01-19T01:02:16.035Z,34.78
2023-01-19T01:04:46.605Z,33.33
2023-01-19T01:07:16.824Z,36.33
2023-01-19T01:09:46.905Z,35.33
2023-01-19T01:12:19.900Z,34.42
2023-01-19T01:14:50.089Z,32.43
2023-01-19T01:17:25.249Z,37.28
2023-01-19T01:19:55.760Z,29.50
2023-01-19T01:22:25.880Z,38.42
2023-01-19T01:24:56.050Z,35.20
2023-01-19T01:27:28.796Z,33.88
2023-01-19T01:29:58.897Z,32.00
2023-01-19T01:32:29.036Z,27.10
2023-01-19T01:35:01.983Z,31.33
2023-01-19T01:37:32.484Z,27.73
2023-01-19T01:40:02.612Z,27.17
2023-01-19T01:42:37.081Z,27.60
2023-01-19T01:45:10.896Z,27.90
2023-01-19T01:47:45.021Z,26.42
2023-01-19T01:50:21.112Z,24.20
2023-01-19T01:53:06.412Z,22.25
2023-01-19T01:55:41.039Z,25.17
2023-01-19T01:58:14.472Z,26.58
2023-01-19T02:00:57.609Z,33.08
2023-01-19T02:03:29.920Z,32.90
2023-01-19T02:06:04.573Z,29.85
2023-01-19T02:08:50.955Z,29.30
2023-01-19T02:11:33.775Z,25.63
2023-01-19T02:14:06.916Z,27.35
2023-01-19T02:16:37.678Z,30.27
2023-01-19T02:19:10.352Z,31.60
2023-01-19T02:21:49.753Z,37.45
2023-01-19T02:24:23.179Z,31.83
2023-01-19T02:26:54.999Z,25.85
2023-01-19T02:29:27.215Z,24.98
2023-01-19T02:31:59.889Z,21.15
2023-01-19T02:34:30.190Z,22.25
2023-01-19T02:37:06.674Z,15.77
2023-01-19T02:39:41.965Z,15.95
2023-01-19T02:42:16.458Z,12.80
2023-01-19T02:44:51.342Z,17.08
2023-01-19T02:47:26.955Z,12.98
2023-01-19T02:49:58.969Z,12.15
2023-01-19T02:52:29.985Z,18.30
2023-01-19T02:55:10.704Z,14.27
2023-01-19T02:57:56.144Z,19.13
2023-01-19T03:00:37.037Z,16.52
2023-01-19T03:03:25.911Z,14.23
2023-01-19T03:06:01.716Z,15.93
2023-01-19T03:08:43.354Z,12.57
2023-01-19T03:11:17.473Z,11.50
2023-01-19T03:13:53.769Z,7.97
2023-01-19T03:16:28.435Z,6.80
2023-01-19T03:19:02.983Z,5.93
2023-01-19T03:21:37.251Z,5.07
2023-01-19T03:24:14.281Z,3.75
2023-01-19T03:26:52.420Z,3.15
2023-01-19T03:29:25.117Z,4.70
2023-01-19T03:31:57.111Z,4.88
2023-01-19T03:34:28.650Z,6.20
2023-01-19T03:37:03.865Z,4.57
2023-01-19T03:39:34.828Z,2.85
2023-01-19T03:42:11.893Z,3.08
2023-01-19T03:44:43.208Z,2.05
2023-01-19T03:47:15.200Z,2.25
2023-01-19T03:49:48.372Z,1.98
2023-01-19T03:52:20.994Z,3.20
2023-01-19T03:54:51.165Z,2.15
2023-01-19T03:57:23.995Z,2.70
2023-01-19T03:59:54.363Z,1.55
2023-01-19T04:02:24.592Z,1.15
2023-01-19T04:04:54.894Z,1.10
2023-01-19T04:07:25.102Z,1.23
2023-01-19T04:09:55.357Z,1.55
2023-01-19T04:12:28.333Z,1.17
2023-01-19T04:14:58.466Z,0.93
2023-01-19T04:17:28.726Z,1.30
2023-01-19T04:19:59.109Z,1.50
2023-01-19T04:22:29.766Z,1.98
2023-01-19T04:25:00.095Z,1.55
2023-01-19T04:27:34.114Z,1.55
2023-01-19T04:30:04.396Z,1.30
2023-01-19T04:32:35.621Z,2.42
2023-01-19T04:35:06.172Z,1.98
2023-01-19T04:37:36.403Z,2.45
2023-01-19T04:40:07.654Z,2.22
2023-01-19T04:42:40.495Z,3.70
2023-01-19T04:45:12.295Z,3.03
2023-01-19T04:47:42.857Z,6.28
2023-01-19T04:50:15.412Z,6.43
2023-01-19T04:52:45.708Z,7.75
2023-01-19T04:55:16.193Z,9.40
2023-01-19T04:57:48.975Z,8.95
2023-01-19T05:00:21.048Z,7.75
2023-01-19T05:02:51.927Z,6.30
2023-01-19T05:05:22.187Z,5.47
2023-01-19T05:07:52.371Z,6.38
2023-01-19T05:10:22.749Z,6.05
2023-01-19T05:12:55.673Z,6.68
2023-01-19T05:15:27.032Z,5.47
2023-01-19T05:18:00.122Z,5.65
2023-01-19T05:20:30.435Z,4.82
2023-01-19T05:23:01.200Z,4.93
2023-01-19T05:25:31.515Z,5.00
2023-01-19T05:28:04.493Z,6.55
2023-01-19T05:30:35.246Z,5.47
2023-01-19T05:33:07.284Z,5.15
2023-01-19T05:35:37.892Z,5.55
2023-01-19T05:38:08.061Z,5.70
2023-01-19T05:40:38.475Z,7.22
2023-01-19T05:43:11.259Z,7.85
2023-01-19T05:45:41.894Z,11.57
2023-01-19T05:48:12.228Z,6.03
2023-01-19T05:50:42.334Z,5.68
2023-01-19T05:53:12.589Z,5.00
2023-01-19T05:55:42.733Z,6.30
2023-01-19T05:58:15.484Z,4.68
2023-01-19T06:00:46.206Z,5.38
2023-01-19T06:03:16.468Z,6.07
2023-01-19T06:05:46.562Z,11.05
2023-01-19T06:08:17.215Z,5.18
2023-01-19T06:10:47.377Z,5.20
2023-01-19T06:13:20.505Z,4.07
2023-01-19T06:15:51.035Z,6.20
2023-01-19T06:18:21.187Z,49.22
2023-01-19T06:20:52.330Z,11.77
2023-01-19T06:23:22.574Z,47.50
2023-01-19T06:25:52.909Z,12.30
2023-01-19T06:28:25.769Z,34.30
2023-01-19T06:30:57.688Z,7.15
2023-01-19T06:33:28.870Z,7.05
2023-01-19T06:35:59.160Z,7.72
2023-01-19T06:38:29.323Z,8.68
2023-01-19T06:41:03.342Z,7.63
2023-01-19T06:43:36.199Z,7.55
2023-01-19T06:46:06.661Z,9.43
2023-01-19T06:48:36.751Z,8.52
2023-01-19T06:51:07.212Z,12.38
2023-01-19T06:53:37.365Z,7.78
2023-01-19T06:56:09.536Z,11.13
2023-01-19T06:58:43.729Z,9.52
2023-01-19T07:01:14.404Z,11.73
2023-01-19T07:03:46.838Z,11.98
2023-01-19T07:06:17.712Z,12.70
2023-01-19T07:08:47.942Z,10.98
2023-01-19T07:11:24.855Z,10.95
2023-01-19T07:14:04.248Z,11.35
2023-01-19T07:16:34.941Z,11.68
2023-01-19T07:19:05.187Z,10.27
2023-01-19T07:21:35.343Z,10.48
2023-01-19T07:24:05.618Z,13.52
2023-01-19T07:26:35.925Z,11.07
2023-01-19T07:29:08.752Z,13.23
2023-01-19T07:31:39.889Z,14.35
2023-01-19T07:34:12.380Z,22.05
2023-01-19T07:36:42.761Z,18.65
2023-01-19T07:39:13.030Z,15.25
2023-01-19T07:41:43.396Z,24.10
2023-01-19T07:44:16.369Z,16.25
2023-01-19T07:46:46.655Z,15.43
2023-01-19T07:49:16.832Z,11.13
2023-01-19T07:51:47.004Z,12.85
2023-01-19T07:54:17.178Z,12.27
2023-01-19T07:56:47.316Z,24.88
2023-01-19T07:59:20.114Z,16.20
2023-01-19T08:01:50.590Z,17.35
2023-01-19T08:04:21.885Z,15.13
2023-01-19T08:06:52.337Z,17.40
2023-01-19T08:09:25.255Z,18.98
2023-01-19T08:11:55.923Z,19.15
2023-01-19T08:14:28.966Z,22.60
2023-01-19T08:17:02.462Z,22.83
2023-01-19T08:19:32.763Z,26.88
2023-01-19T08:22:03.025Z,28.67
2023-01-19T08:24:33.338Z,31.00
2023-01-19T08:27:04.799Z,39.75
2023-01-19T08:29:37.639Z,42.03
2023-01-19T08:32:08.911Z,41.87
2023-01-19T08:34:39.087Z,43.33
2023-01-19T08:37:09.160Z,47.15
2023-01-19T08:39:39.487Z,60.05
2023-01-19T08:42:10.179Z,53.85
2023-01-19T08:44:57.323Z,54.92
2023-01-19T08:47:28.243Z,50.38
2023-01-19T08:49:58.438Z,49.53
2023-01-19T08:52:29.534Z,139.63
2023-01-19T08:55:00.694Z,49.22
2023-01-19T08:57:30.932Z,50.75
2023-01-19T09:00:04.567Z,46.05
2023-01-19T09:02:34.993Z,78.85
2023-01-19T09:05:05.145Z,49.20
2023-01-19T09:07:35.763Z,143.20
2023-01-19T09:10:06.602Z,126.25
2023-01-19T09:12:36.717Z,52.05
2023-01-19T09:15:11.009Z,46.63
2023-01-19T09:17:41.256Z,72.93
2023-01-19T09:20:14.077Z,109.00
2023-01-19T09:22:44.201Z,64.75
2023-01-19T09:25:16.053Z,49.13
2023-01-19T09:27:46.260Z,52.85
2023-01-19T09:30:19.867Z,49.65
2023-01-19T09:32:50.018Z,43.05
2023-01-19T09:35:20.319Z,47.85
2023-01-19T09:37:50.522Z,141.48
2023-01-19T09:40:23.507Z,60.60
2023-01-19T09:42:59.556Z,43.53
2023-01-19T09:45:39.771Z,47.45
2023-01-19T09:48:23.521Z,60.05
2023-01-19T09:50:53.903Z,45.50
2023-01-19T09:53:36.896Z,56.10
2023-01-19T09:56:07.257Z,45.47
2023-01-19T09:58:37.352Z,45.78
2023-01-19T10:01:24.368Z,63.10
2023-01-19T10:04:11.276Z,50.88
2023-01-19T10:06:41.541Z,45.05
2023-01-19T10:09:20.257Z,71.85
2023-01-19T10:12:00.437Z,49.85
2023-01-19T10:14:37.269Z,51.05
2023-01-19T10:17:23.345Z,50.03
2023-01-19T10:19:58.363Z,48.83
2023-01-19T10:22:31.118Z,47.70
2023-01-19T10:25:06.206Z,59.03
2023-01-19T10:27:38.094Z,52.17
2023-01-19T10:30:12.864Z,71.85
2023-01-19T10:32:45.761Z,42.45
2023-01-19T10:35:23.541Z,41.85
2023-01-19T10:37:56.244Z,62.95
2023-01-19T10:40:35.175Z,57.38
2023-01-19T10:43:25.506Z,44.88
2023-01-19T10:45:55.900Z,53.28
2023-01-19T10:48:29.097Z,62.60
2023-01-19T10:51:05.874Z,92.32
2023-01-19T10:53:38.280Z,61.10
2023-01-19T10:56:17.605Z,89.47
2023-01-19T10:58:48.145Z,49.83
2023-01-19T11:01:23.418Z,63.30
2023-01-19T11:04:03.731Z,53.95
2023-01-19T11:06:35.914Z,58.65
2023-01-19T11:09:19.901Z,51.05
2023-01-19T11:11:52.603Z,61.03
2023-01-19T11:14:25.783Z,78.10
2023-01-19T11:16:58.338Z,64.82
2023-01-19T11:19:34.212Z,62.30
2023-01-19T11:22:21.940Z,64.85
2023-01-19T11:24:53.253Z,68.25
2023-01-19T11:27:24.626Z,56.15
2023-01-19T11:30:05.473Z,68.35
2023-01-19T11:32:37.258Z,112.13
2023-01-19T11:35:42.107Z,83.53
2023-01-19T11:40:57.337Z,58.72
2023-01-19T11:46:19.769Z,101.97
2023-01-19T11:49:02.170Z,77.20
2023-01-19T11:51:42.399Z,66.65
2023-01-19T11:54:23.861Z,82.82
2023-01-19T11:56:57.580Z,89.43
2023-01-19T11:59:27.969Z,198.40
2023-01-19T12:02:02.068Z,121.35
2023-01-19T12:04:36.461Z,214.40
2023-01-19T12:07:12.910Z,178.05
2023-01-19T12:09:48.811Z,88.03
2023-01-19T12:12:29.878Z,133.93
2023-01-19T12:15:07.053Z,134.07
2023-01-19T12:17:41.199Z,170.02
2023-01-19T12:20:27.858Z,116.70
2023-01-19T12:23:12.060Z,100.70
2023-01-19T12:28:24.695Z,132.70
2023-01-19T12:30:55.772Z,179.77
2023-01-19T12:33:37.667Z,414.23
2023-01-19T12:36:14.340Z,155.40
2023-01-19T12:38:53.132Z,134.20
2023-01-19T12:41:27.684Z,110.70
2023-01-19T12:44:23.299Z,145.38
2023-01-19T12:46:57.820Z,266.70
2023-01-19T12:49:32.220Z,122.30
2023-01-19T12:52:20.940Z,352.05
2023-01-19T12:55:01.222Z,286.83
2023-01-19T12:57:35.809Z,473.65
2023-01-19T13:00:10.649Z,61.60
2023-01-19T13:02:50.167Z,52.85
2023-01-19T13:05:36.563Z,233.35
2023-01-19T13:08:24.079Z,185.48
2023-01-19T13:11:27.272Z,82.85
2023-01-19T13:14:31.406Z,72.70
2023-01-19T13:17:06.554Z,89.72
2023-01-19T13:19:48.205Z,76.00
2023-01-19T13:22:49.674Z,96.00
2023-01-19T13:25:34.531Z,58.53
2023-01-19T13:28:12.919Z,86.65
2023-01-19T13:30:58.131Z,51.95
2023-01-19T13:33:31.236Z,51.40
2023-01-19T13:36:02.271Z,57.73
2023-01-19T13:38:33.384Z,86.53
2023-01-19T13:41:06.207Z,60.22
2023-01-19T13:43:44.951Z,59.90
2023-01-19T13:46:19.061Z,50.63
2023-01-19T13:48:58.523Z,69.50
2023-01-19T13:51:29.086Z,66.35
2023-01-19T13:54:01.853Z,79.07
2023-01-19T13:56:33.299Z,42.88
2023-01-19T13:59:10.558Z,71.05
2023-01-19T14:01:43.095Z,136.98
2023-01-19T14:04:31.422Z,62.53
2023-01-19T14:07:05.432Z,84.85
2023-01-19T14:09:35.717Z,73.03
2023-01-19T14:12:16.402Z,59.88
2023-01-19T14:14:49.990Z,31.52
2023-01-19T14:17:25.532Z,60.53
2023-01-19T14:19:57.429Z,94.35
2023-01-19T14:22:43.766Z,45.58
2023-01-19T14:25:32.533Z,38.25
2023-01-19T14:28:31.406Z,49.65
2023-01-19T14:31:06.846Z,38.45
2023-01-19T14:33:39.117Z,34.55
2023-01-19T14:36:16.773Z,33.58
2023-01-19T14:38:52.270Z,28.42
2023-01-19T14:41:28.986Z,25.70
2023-01-19T14:44:00.639Z,28.63
2023-01-19T14:46:34.688Z,31.88
2023-01-19T14:49:08.097Z,36.25
2023-01-19T14:51:41.142Z,42.42
2023-01-19T14:54:22.883Z,31.75
2023-01-19T14:56:57.264Z,36.13
2023-01-19T14:59:27.824Z,101.85
2023-01-19T15:02:01.676Z,34.22
2023-01-19T15:04:32.307Z,33.10
2023-01-19T15:07:03.353Z,78.72
2023-01-19T15:09:33.723Z,51.03
2023-01-19T15:12:04.421Z,133.02
2023-01-19T15:14:34.945Z,371.85
2023-01-19T15:17:08.330Z,136.85
2023-01-19T15:19:39.468Z,266.27
2023-01-19T15:22:15.083Z,194.98
2023-01-19T15:24:45.270Z,61.03
2023-01-19T15:27:15.902Z,251.48
2023-01-19T15:29:46.434Z,93.35
2023-01-19T15:32:19.256Z,329.50
2023-01-19T15:34:50.100Z,380.95
2023-01-19T15:37:20.387Z,465.80
2023-01-19T15:39:50.648Z,170.43
2023-01-19T15:42:35.467Z,203.48
2023-01-19T15:45:45.923Z,93.45
2023-01-19T15:48:24.903Z,93.15
2023-01-19T15:50:56.534Z,189.80
2023-01-19T15:53:28.030Z,206.95
2023-01-19T15:55:58.509Z,352.48
2023-01-19T15:58:29.458Z,219.27
2023-01-19T16:01:01.994Z,102.53
2023-01-19T16:03:41.059Z,148.45
2023-01-19T16:06:19.594Z,51.47
2023-01-19T16:08:55.217Z,53.20
2023-01-19T16:11:25.830Z,54.65
2023-01-19T16:13:56.524Z,52.40
2023-01-19T16:16:28.749Z,54.33
2023-01-19T16:19:04.515Z,62.97
2023-01-19T16:21:35.044Z,54.95
2023-01-19T16:24:05.639Z,123.10
2023-01-19T16:26:37.564Z,81.32
2023-01-19T16:29:11.121Z,89.50
2023-01-19T16:31:43.269Z,62.72
2023-01-19T16:34:16.689Z,40.88
2023-01-19T16:36:47.104Z,83.95
2023-01-19T16:39:18.937Z,105.10
2023-01-19T16:41:49.534Z,57.80
2023-01-19T16:44:20.261Z,106.07
2023-01-19T16:46:51.425Z,106.03
2023-01-19T16:49:28.707Z,96.35
2023-01-19T16:52:00.324Z,44.30
2023-01-19T16:54:32.369Z,51.72
2023-01-19T16:57:03.194Z,59.05
2023-01-19T16:59:33.685Z,54.03
2023-01-19T17:02:04.541Z,61.47
2023-01-19T17:04:38.105Z,58.47
2023-01-19T17:07:08.628Z,57.92
2023-01-19T17:09:43.710Z,44.00
2023-01-19T17:12:14.896Z,107.70
2023-01-19T17:14:47.503Z,75.75
2023-01-19T17:17:18.160Z,81.97
2023-01-19T17:19:51.115Z,82.65
2023-01-19T17:22:24.996Z,46.78
2023-01-19T17:24:55.274Z,48.72
2023-01-19T17:27:25.883Z,45.53
2023-01-19T17:29:57.201Z,42.22
2023-01-19T17:32:27.842Z,45.42
2023-01-19T17:35:01.074Z,47.50
2023-01-19T17:37:31.490Z,47.65
2023-01-19T17:40:01.904Z,267.95
2023-01-19T17:42:32.029Z,75.85
2023-01-19T17:45:02.186Z,161.80
2023-01-19T17:47:32.349Z,78.85
2023-01-19T17:50:05.268Z,264.33
2023-01-19T17:52:35.798Z,334.97
2023-01-19T17:55:06.273Z,84.20
2023-01-19T17:57:36.653Z,217.85
2023-01-19T18:00:07.911Z,288.58
2023-01-19T18:02:43.503Z,167.80
2023-01-19T18:05:18.627Z,39.38
2023-01-19T18:07:49.183Z,88.35
2023-01-19T18:10:20.966Z,118.72
2023-01-19T18:12:52.186Z,96.70
2023-01-19T18:15:23.951Z,42.78
2023-01-19T18:17:55.034Z,53.33
2023-01-19T18:20:31.551Z,37.95
2023-01-19T18:23:01.901Z,85.93
2023-01-19T18:25:33.628Z,60.65
2023-01-19T18:28:06.307Z,56.00
2023-01-19T18:30:38.545Z,51.90
2023-01-19T18:33:11.232Z,43.92
2023-01-19T18:35:45.171Z,130.73
2023-01-19T18:38:15.735Z,68.95
2023-01-19T18:40:46.868Z,50.97
2023-01-19T18:43:17.423Z,71.80
2023-01-19T18:45:50.218Z,93.25
2023-01-19T18:48:21.001Z,34.17
2023-01-19T18:50:54.805Z,33.40
2023-01-19T18:53:25.802Z,36.13
2023-01-19T18:55:57.725Z,31.08
2023-01-19T18:58:29.369Z,36.45
2023-01-19T19:01:00.763Z,36.90
2023-01-19T19:03:32.127Z,30.15
2023-01-19T19:06:11.864Z,38.70
2023-01-19T19:09:08.915Z,28.98
2023-01-19T19:11:39.283Z,61.60
2023-01-19T19:14:09.891Z,41.90
2023-01-19T19:16:41.180Z,75.40
2023-01-19T19:19:12.974Z,40.35
2023-01-19T19:21:49.112Z,41.95
2023-01-19T19:24:19.348Z,34.15
2023-01-19T19:26:51.407Z,130.95
2023-01-19T19:29:25.339Z,221.88
2023-01-19T19:31:56.769Z,180.98
2023-01-19T19:34:28.126Z,161.38
2023-01-19T19:37:01.499Z,257.95
2023-01-19T19:39:31.849Z,397.48
2023-01-19T19:42:02.153Z,210.48
2023-01-19T19:44:32.810Z,133.27
2023-01-19T19:47:03.112Z,46.40
2023-01-19T19:49:33.371Z,146.48
2023-01-19T19:52:06.536Z,61.58
2023-01-19T19:54:40.514Z,51.22
2023-01-19T19:57:10.691Z,30.23
2023-01-19T19:59:45.229Z,28.58
2023-01-19T20:02:17.523Z,31.50
2023-01-19T20:04:59.326Z,52.30
2023-01-19T20:07:41.649Z,45.85
2023-01-19T20:10:23.978Z,33.42
2023-01-19T20:12:59.000Z,46.20
2023-01-19T20:15:33.111Z,45.92
2023-01-19T20:18:07.807Z,59.60
2023-01-19T20:20:40.100Z,83.60
2023-01-19T20:23:16.823Z,64.80
2023-01-19T20:25:48.601Z,51.83
2023-01-19T20:28:26.993Z,67.00
2023-01-19T20:30:58.761Z,58.05
2023-01-19T20:33:31.912Z,49.63
2023-01-19T20:36:10.413Z,41.85
2023-01-19T20:39:09.913Z,39.17
2023-01-19T20:41:46.242Z,35.30
2023-01-19T20:44:25.117Z,34.08
2023-01-19T20:46:57.158Z,52.92
2023-01-19T20:49:28.178Z,66.22
2023-01-19T20:51:58.409Z,57.92
2023-01-19T20:54:32.078Z,37.58
2023-01-19T20:57:03.849Z,43.95
2023-01-19T20:59:34.357Z,31.40
2023-01-19T21:02:08.181Z,44.90
2023-01-19T21:04:38.621Z,29.80
2023-01-19T21:07:15.682Z,33.30
2023-01-19T21:09:49.244Z,28.27
2023-01-19T21:12:25.534Z,29.38
2023-01-19T21:14:56.610Z,30.60
2023-01-19T21:17:36.759Z,29.15
2023-01-19T21:20:08.646Z,27.33
2023-01-19T21:22:45.806Z,28.10
2023-01-19T21:25:19.107Z,32.67
2023-01-19T21:27:51.011Z,37.83
2023-01-19T21:30:25.554Z,41.78
2023-01-19T21:32:56.009Z,37.42
2023-01-19T21:35:27.258Z,36.58
2023-01-19T21:38:01.907Z,36.55
2023-01-19T21:40:35.072Z,38.92
2023-01-19T21:43:07.683Z,33.75
2023-01-19T21:45:38.503Z,34.42
2023-01-19T21:48:09.279Z,29.30
2023-01-19T21:50:39.701Z,25.58
2023-01-19T21:53:11.695Z,24.80
2023-01-19T21:55:48.087Z,33.63
2023-01-19T21:58:20.013Z,24.98
2023-01-19T22:00:54.580Z,27.20
2023-01-19T22:03:27.406Z,31.00
2023-01-19T22:05:58.019Z,26.42
2023-01-19T22:08:28.334Z,100.85
2023-01-19T22:11:05.643Z,81.13
2023-01-19T22:13:38.689Z,30.02
2023-01-19T22:16:12.128Z,28.13
2023-01-19T22:18:45.309Z,35.78
2023-01-19T22:21:20.722Z,33.03
2023-01-19T22:23:52.472Z,85.90
2023-01-19T22:26:26.206Z,31.50
2023-01-19T22:28:58.058Z,27.73
2023-01-19T22:31:31.019Z,31.50
2023-01-19T22:34:18.788Z,64.83
2023-01-19T22:36:49.508Z,47.22
2023-01-19T22:39:21.254Z,125.40
2023-01-19T22:41:55.844Z,30.95
2023-01-19T22:44:26.200Z,168.07
2023-01-19T22:46:58.583Z,97.30
2023-01-19T22:49:29.049Z,54.42
2023-01-19T22:52:00.095Z,27.70
2023-01-19T22:54:33.168Z,309.75
2023-01-19T22:57:08.341Z,94.68
2023-01-19T22:59:38.495Z,127.18
2023-01-19T23:02:09.659Z,37.75
2023-01-19T23:04:41.020Z,106.03
2023-01-19T23:07:12.342Z,104.55
2023-01-19T23:09:42.553Z,73.68
2023-01-19T23:12:21.459Z,97.97
2023-01-19T23:14:51.973Z,67.07
2023-01-19T23:17:24.659Z,30.30
2023-01-19T23:19:55.856Z,45.00
2023-01-19T23:22:27.155Z,42.67
2023-01-19T23:24:59.271Z,38.42
2023-01-19T23:27:32.626Z,98.25
2023-01-19T23:30:04.391Z,30.45
2023-01-19T23:32:35.124Z,32.65
2023-01-19T23:35:08.469Z,33.08
2023-01-19T23:37:38.839Z,84.63
2023-01-19T23:40:13.455Z,52.00
2023-01-19T23:42:48.557Z,37.13
2023-01-19T23:45:20.324Z,115.47
2023-01-19T23:47:50.568Z,77.50
2023-01-19T23:50:22.200Z,73.95
2023-01-19T23:52:53.719Z,63.55
2023-01-19T23:55:31.660Z,56.50
2023-01-19T23:58:04.671Z,74.53
